sensor_id;sensor_type;location;lat;lon;timestamp;P1;durP1;ratioP1;P2;durP2;ratioP2
5684;SDS011;2865;53.114;9.130;2023-05-16T00:00:39;3.87;;;2.10;;
5684;SDS011;2865;53.114;9.130;2023-05-16T00:03:04;3.43;;;2.20;;
5684;SDS011;2865;53.114;9.130;2023-05-16T00:05:30;3.53;;;2.37;;
5684;SDS011;2865;53.114;9.130;2023-05-16T00:07:55;8.53;;;2.80;;
5684;SDS011;2865;53.114;9.130;2023-05-16T00:10:21;2.73;;;2.40;;
5684;SDS011;2865;53.114;9.130;2023-05-16T00:12:46;4.77;;;2.47;;
5684;SDS011;2865;53.114;9.130;2023-05-16T00:15:12;7.43;;;2.20;;
5684;SDS011;2865;53.114;9.130;2023-05-16T00:17:37;3.70;;;2.80;;
5684;SDS011;2865;53.114;9.130;2023-05-16T00:20:03;3.03;;;2.20;;
5684;SDS011;2865;53.114;9.130;2023-05-16T00:22:29;5.20;;;2.70;;
5684;SDS011;2865;53.114;9.130;2023-05-16T00:24:54;7.10;;;2.50;;
5684;SDS011;2865;53.114;9.130;2023-05-16T00:27:19;4.20;;;2.93;;
5684;SDS011;2865;53.114;9.130;2023-05-16T00:29:45;9.33;;;3.00;;
5684;SDS011;2865;53.114;9.130;2023-05-16T00:32:10;7.50;;;2.73;;
5684;SDS011;2865;53.114;9.130;2023-05-16T00:34:36;6.93;;;2.90;;
5684;SDS011;2865;53.114;9.130;2023-05-16T00:37:01;4.20;;;2.97;;
5684;SDS011;2865;53.114;9.130;2023-05-16T00:39:27;7.00;;;2.70;;
5684;SDS011;2865;53.114;9.130;2023-05-16T00:41:52;5.20;;;3.50;;
5684;SDS011;2865;53.114;9.130;2023-05-16T00:44:17;6.37;;;3.30;;
5684;SDS011;2865;53.114;9.130;2023-05-16T00:46:43;4.53;;;2.53;;
5684;SDS011;2865;53.114;9.130;2023-05-16T00:49:09;11.60;;;3.00;;
5684;SDS011;2865;53.114;9.130;2023-05-16T00:51:34;5.67;;;3.17;;
5684;SDS011;2865;53.114;9.130;2023-05-16T00:53:59;3.43;;;2.40;;
5684;SDS011;2865;53.114;9.130;2023-05-16T00:56:25;4.93;;;2.57;;
5684;SDS011;2865;53.114;9.130;2023-05-16T00:58:50;9.83;;;2.97;;
5684;SDS011;2865;53.114;9.130;2023-05-16T01:01:15;8.13;;;3.50;;
5684;SDS011;2865;53.114;9.130;2023-05-16T01:03:42;5.20;;;3.00;;
5684;SDS011;2865;53.114;9.130;2023-05-16T01:06:07;4.33;;;2.30;;
5684;SDS011;2865;53.114;9.130;2023-05-16T01:08:33;2.20;;;2.00;;
5684;SDS011;2865;53.114;9.130;2023-05-16T01:16:49;3.23;;;2.53;;
5684;SDS011;2865;53.114;9.130;2023-05-16T01:22:15;7.60;;;2.80;;
5684;SDS011;2865;53.114;9.130;2023-05-16T01:24:42;4.53;;;2.87;;
5684;SDS011;2865;53.114;9.130;2023-05-16T01:27:04;6.73;;;3.00;;
5684;SDS011;2865;53.114;9.130;2023-05-16T01:29:29;7.13;;;3.13;;
5684;SDS011;2865;53.114;9.130;2023-05-16T01:31:54;3.07;;;2.37;;
5684;SDS011;2865;53.114;9.130;2023-05-16T01:34:20;5.27;;;2.70;;
5684;SDS011;2865;53.114;9.130;2023-05-16T01:42:11;13.67;;;4.37;;
5684;SDS011;2865;53.114;9.130;2023-05-16T01:44:40;4.27;;;2.40;;
5684;SDS011;2865;53.114;9.130;2023-05-16T01:47:11;8.50;;;3.20;;
5684;SDS011;2865;53.114;9.130;2023-05-16T01:49:35;9.13;;;2.80;;
5684;SDS011;2865;53.114;9.130;2023-05-16T01:52:01;8.00;;;3.37;;
5684;SDS011;2865;53.114;9.130;2023-05-16T01:54:25;8.97;;;2.83;;
5684;SDS011;2865;53.114;9.130;2023-05-16T01:56:51;5.10;;;3.57;;
5684;SDS011;2865;53.114;9.130;2023-05-16T01:59:16;6.37;;;3.57;;
5684;SDS011;2865;53.114;9.130;2023-05-16T02:01:41;9.60;;;3.13;;
5684;SDS011;2865;53.114;9.130;2023-05-16T02:04:06;16.43;;;3.37;;
5684;SDS011;2865;53.114;9.130;2023-05-16T02:06:32;6.07;;;2.67;;
5684;SDS011;2865;53.114;9.130;2023-05-16T02:08:57;9.27;;;3.03;;
5684;SDS011;2865;53.114;9.130;2023-05-16T02:11:22;8.37;;;3.03;;
5684;SDS011;2865;53.114;9.130;2023-05-16T02:13:48;8.93;;;3.00;;
5684;SDS011;2865;53.114;9.130;2023-05-16T02:16:13;6.50;;;2.90;;
5684;SDS011;2865;53.114;9.130;2023-05-16T02:18:39;16.27;;;2.77;;
5684;SDS011;2865;53.114;9.130;2023-05-16T02:21:04;12.13;;;3.13;;
5684;SDS011;2865;53.114;9.130;2023-05-16T02:23:30;9.37;;;3.40;;
5684;SDS011;2865;53.114;9.130;2023-05-16T02:25:55;5.40;;;2.80;;
5684;SDS011;2865;53.114;9.130;2023-05-16T02:28:21;11.50;;;3.37;;
5684;SDS011;2865;53.114;9.130;2023-05-16T02:30:54;5.57;;;2.90;;
5684;SDS011;2865;53.114;9.130;2023-05-16T02:33:12;7.47;;;2.80;;
5684;SDS011;2865;53.114;9.130;2023-05-16T02:35:37;8.57;;;3.17;;
5684;SDS011;2865;53.114;9.130;2023-05-16T02:38:02;11.23;;;3.57;;
5684;SDS011;2865;53.114;9.130;2023-05-16T02:40:28;8.43;;;3.30;;
5684;SDS011;2865;53.114;9.130;2023-05-16T02:42:53;7.50;;;2.90;;
5684;SDS011;2865;53.114;9.130;2023-05-16T02:45:19;9.03;;;3.27;;
5684;SDS011;2865;53.114;9.130;2023-05-16T02:47:44;5.83;;;2.80;;
5684;SDS011;2865;53.114;9.130;2023-05-16T02:50:10;8.30;;;3.70;;
5684;SDS011;2865;53.114;9.130;2023-05-16T02:52:35;7.70;;;3.80;;
5684;SDS011;2865;53.114;9.130;2023-05-16T02:55:02;10.13;;;3.33;;
5684;SDS011;2865;53.114;9.130;2023-05-16T02:57:27;8.07;;;2.90;;
5684;SDS011;2865;53.114;9.130;2023-05-16T02:59:53;9.80;;;3.30;;
5684;SDS011;2865;53.114;9.130;2023-05-16T03:02:18;13.40;;;4.90;;
5684;SDS011;2865;53.114;9.130;2023-05-16T03:04:43;13.50;;;4.60;;
5684;SDS011;2865;53.114;9.130;2023-05-16T03:07:09;20.97;;;3.50;;
5684;SDS011;2865;53.114;9.130;2023-05-16T03:09:34;14.70;;;4.67;;
5684;SDS011;2865;53.114;9.130;2023-05-16T03:12:00;11.93;;;3.77;;
5684;SDS011;2865;53.114;9.130;2023-05-16T03:14:25;10.87;;;4.33;;
5684;SDS011;2865;53.114;9.130;2023-05-16T03:16:51;13.83;;;3.20;;
5684;SDS011;2865;53.114;9.130;2023-05-16T03:19:17;17.23;;;3.90;;
5684;SDS011;2865;53.114;9.130;2023-05-16T03:21:42;13.40;;;3.70;;
5684;SDS011;2865;53.114;9.130;2023-05-16T03:24:07;12.27;;;3.37;;
5684;SDS011;2865;53.114;9.130;2023-05-16T03:26:33;12.33;;;3.40;;
5684;SDS011;2865;53.114;9.130;2023-05-16T03:28:58;22.97;;;3.30;;
5684;SDS011;2865;53.114;9.130;2023-05-16T03:31:24;7.97;;;4.10;;
5684;SDS011;2865;53.114;9.130;2023-05-16T03:33:49;15.57;;;3.80;;
5684;SDS011;2865;53.114;9.130;2023-05-16T03:36:14;11.00;;;5.17;;
5684;SDS011;2865;53.114;9.130;2023-05-16T03:38:40;12.97;;;3.47;;
5684;SDS011;2865;53.114;9.130;2023-05-16T03:41:05;17.87;;;4.33;;
5684;SDS011;2865;53.114;9.130;2023-05-16T03:43:31;10.23;;;3.67;;
5684;SDS011;2865;53.114;9.130;2023-05-16T03:45:56;10.93;;;3.80;;
5684;SDS011;2865;53.114;9.130;2023-05-16T03:48:22;18.07;;;3.97;;
5684;SDS011;2865;53.114;9.130;2023-05-16T03:50:48;21.80;;;3.90;;
5684;SDS011;2865;53.114;9.130;2023-05-16T03:53:13;9.53;;;3.03;;
5684;SDS011;2865;53.114;9.130;2023-05-16T03:55:39;12.63;;;3.27;;
5684;SDS011;2865;53.114;9.130;2023-05-16T03:58:05;13.90;;;3.47;;
5684;SDS011;2865;53.114;9.130;2023-05-16T04:00:30;13.73;;;2.80;;
5684;SDS011;2865;53.114;9.130;2023-05-16T04:02:56;17.10;;;3.40;;
5684;SDS011;2865;53.114;9.130;2023-05-16T04:05:21;13.80;;;3.50;;
5684;SDS011;2865;53.114;9.130;2023-05-16T04:07:46;9.50;;;2.70;;
5684;SDS011;2865;53.114;9.130;2023-05-16T04:10:12;7.83;;;2.70;;
5684;SDS011;2865;53.114;9.130;2023-05-16T04:12:37;23.60;;;3.50;;
5684;SDS011;2865;53.114;9.130;2023-05-16T04:15:04;16.30;;;3.17;;
5684;SDS011;2865;53.114;9.130;2023-05-16T04:17:30;14.70;;;3.07;;
5684;SDS011;2865;53.114;9.130;2023-05-16T04:19:56;10.33;;;2.27;;
5684;SDS011;2865;53.114;9.130;2023-05-16T04:22:21;11.63;;;3.03;;
5684;SDS011;2865;53.114;9.130;2023-05-16T04:24:47;16.17;;;4.40;;
5684;SDS011;2865;53.114;9.130;2023-05-16T04:27:12;14.20;;;2.93;;
5684;SDS011;2865;53.114;9.130;2023-05-16T04:29:37;14.50;;;3.37;;
5684;SDS011;2865;53.114;9.130;2023-05-16T04:32:03;14.63;;;2.77;;
5684;SDS011;2865;53.114;9.130;2023-05-16T04:34:29;16.20;;;3.80;;
5684;SDS011;2865;53.114;9.130;2023-05-16T04:36:54;15.47;;;3.20;;
5684;SDS011;2865;53.114;9.130;2023-05-16T04:39:20;18.57;;;4.30;;
5684;SDS011;2865;53.114;9.130;2023-05-16T04:41:45;9.70;;;2.47;;
5684;SDS011;2865;53.114;9.130;2023-05-16T04:44:10;16.90;;;2.53;;
5684;SDS011;2865;53.114;9.130;2023-05-16T04:46:36;8.73;;;3.00;;
5684;SDS011;2865;53.114;9.130;2023-05-16T04:49:01;10.87;;;2.70;;
5684;SDS011;2865;53.114;9.130;2023-05-16T04:51:27;6.33;;;2.23;;
5684;SDS011;2865;53.114;9.130;2023-05-16T04:53:52;11.27;;;2.77;;
5684;SDS011;2865;53.114;9.130;2023-05-16T04:56:18;6.53;;;2.63;;
5684;SDS011;2865;53.114;9.130;2023-05-16T04:58:43;11.40;;;3.20;;
5684;SDS011;2865;53.114;9.130;2023-05-16T05:01:09;13.73;;;3.20;;
5684;SDS011;2865;53.114;9.130;2023-05-16T05:03:34;8.67;;;3.23;;
5684;SDS011;2865;53.114;9.130;2023-05-16T05:05:59;10.27;;;2.53;;
5684;SDS011;2865;53.114;9.130;2023-05-16T05:08:25;12.97;;;3.20;;
5684;SDS011;2865;53.114;9.130;2023-05-16T05:10:50;13.87;;;3.33;;
5684;SDS011;2865;53.114;9.130;2023-05-16T05:13:16;18.53;;;4.37;;
5684;SDS011;2865;53.114;9.130;2023-05-16T05:15:41;10.53;;;2.77;;
5684;SDS011;2865;53.114;9.130;2023-05-16T05:18:07;11.40;;;2.73;;
5684;SDS011;2865;53.114;9.130;2023-05-16T05:20:32;15.33;;;3.53;;
5684;SDS011;2865;53.114;9.130;2023-05-16T05:22:57;5.33;;;2.10;;
5684;SDS011;2865;53.114;9.130;2023-05-16T05:25:23;15.40;;;3.63;;
5684;SDS011;2865;53.114;9.130;2023-05-16T05:27:49;11.60;;;2.90;;
5684;SDS011;2865;53.114;9.130;2023-05-16T05:30:14;8.37;;;2.63;;
5684;SDS011;2865;53.114;9.130;2023-05-16T05:32:39;8.13;;;2.27;;
5684;SDS011;2865;53.114;9.130;2023-05-16T05:35:05;8.27;;;2.50;;
5684;SDS011;2865;53.114;9.130;2023-05-16T05:37:31;11.43;;;3.00;;
5684;SDS011;2865;53.114;9.130;2023-05-16T05:39:57;22.30;;;3.93;;
5684;SDS011;2865;53.114;9.130;2023-05-16T05:42:22;8.17;;;3.30;;
5684;SDS011;2865;53.114;9.130;2023-05-16T05:44:47;4.37;;;2.73;;
5684;SDS011;2865;53.114;9.130;2023-05-16T05:47:13;14.80;;;4.37;;
5684;SDS011;2865;53.114;9.130;2023-05-16T05:49:38;11.13;;;3.33;;
5684;SDS011;2865;53.114;9.130;2023-05-16T05:52:04;8.50;;;2.57;;
5684;SDS011;2865;53.114;9.130;2023-05-16T05:54:30;9.53;;;2.80;;
5684;SDS011;2865;53.114;9.130;2023-05-16T05:56:56;8.87;;;3.40;;
5684;SDS011;2865;53.114;9.130;2023-05-16T05:59:21;10.80;;;2.03;;
5684;SDS011;2865;53.114;9.130;2023-05-16T06:01:47;7.87;;;2.57;;
5684;SDS011;2865;53.114;9.130;2023-05-16T06:04:12;9.90;;;2.87;;
5684;SDS011;2865;53.114;9.130;2023-05-16T06:06:37;7.23;;;2.60;;
5684;SDS011;2865;53.114;9.130;2023-05-16T06:09:03;12.30;;;2.77;;
5684;SDS011;2865;53.114;9.130;2023-05-16T06:11:28;5.23;;;3.03;;
5684;SDS011;2865;53.114;9.130;2023-05-16T06:13:54;16.43;;;2.40;;
5684;SDS011;2865;53.114;9.130;2023-05-16T06:16:22;9.77;;;2.60;;
5684;SDS011;2865;53.114;9.130;2023-05-16T06:18:45;10.10;;;4.73;;
5684;SDS011;2865;53.114;9.130;2023-05-16T06:21:10;6.83;;;2.10;;
5684;SDS011;2865;53.114;9.130;2023-05-16T06:23:36;10.40;;;2.80;;
5684;SDS011;2865;53.114;9.130;2023-05-16T06:26:02;17.40;;;2.77;;
5684;SDS011;2865;53.114;9.130;2023-05-16T06:28:27;10.40;;;4.57;;
5684;SDS011;2865;53.114;9.130;2023-05-16T06:30:52;12.10;;;3.10;;
5684;SDS011;2865;53.114;9.130;2023-05-16T06:33:18;14.03;;;3.20;;
5684;SDS011;2865;53.114;9.130;2023-05-16T06:35:44;10.13;;;2.50;;
5684;SDS011;2865;53.114;9.130;2023-05-16T06:38:09;13.00;;;2.77;;
5684;SDS011;2865;53.114;9.130;2023-05-16T06:40:34;5.73;;;2.73;;
5684;SDS011;2865;53.114;9.130;2023-05-16T06:43:02;15.60;;;2.83;;
5684;SDS011;2865;53.114;9.130;2023-05-16T06:45:27;4.53;;;2.17;;
5684;SDS011;2865;53.114;9.130;2023-05-16T06:47:53;7.30;;;2.60;;
5684;SDS011;2865;53.114;9.130;2023-05-16T06:50:18;10.17;;;2.80;;
5684;SDS011;2865;53.114;9.130;2023-05-16T06:52:44;5.77;;;2.37;;
5684;SDS011;2865;53.114;9.130;2023-05-16T06:55:09;5.67;;;1.93;;
5684;SDS011;2865;53.114;9.130;2023-05-16T06:57:34;7.03;;;2.67;;
5684;SDS011;2865;53.114;9.130;2023-05-16T07:00:00;7.77;;;2.37;;
5684;SDS011;2865;53.114;9.130;2023-05-16T07:02:25;17.10;;;3.43;;
5684;SDS011;2865;53.114;9.130;2023-05-16T07:04:51;6.13;;;2.43;;
5684;SDS011;2865;53.114;9.130;2023-05-16T07:07:16;6.07;;;2.33;;
5684;SDS011;2865;53.114;9.130;2023-05-16T07:09:42;4.23;;;2.17;;
5684;SDS011;2865;53.114;9.130;2023-05-16T07:12:07;14.43;;;2.40;;
5684;SDS011;2865;53.114;9.130;2023-05-16T07:14:33;8.97;;;3.53;;
5684;SDS011;2865;53.114;9.130;2023-05-16T07:16:58;4.33;;;2.10;;
5684;SDS011;2865;53.114;9.130;2023-05-16T07:19:23;7.43;;;2.33;;
5684;SDS011;2865;53.114;9.130;2023-05-16T07:21:49;8.13;;;2.50;;
5684;SDS011;2865;53.114;9.130;2023-05-16T07:24:14;9.00;;;2.33;;
5684;SDS011;2865;53.114;9.130;2023-05-16T07:26:40;7.90;;;2.23;;
5684;SDS011;2865;53.114;9.130;2023-05-16T07:29:05;3.93;;;2.63;;
5684;SDS011;2865;53.114;9.130;2023-05-16T07:31:30;9.77;;;2.20;;
5684;SDS011;2865;53.114;9.130;2023-05-16T07:33:56;12.00;;;2.20;;
5684;SDS011;2865;53.114;9.130;2023-05-16T07:36:21;5.73;;;2.03;;
5684;SDS011;2865;53.114;9.130;2023-05-16T07:38:46;5.80;;;2.00;;
5684;SDS011;2865;53.114;9.130;2023-05-16T07:41:12;4.47;;;1.83;;
5684;SDS011;2865;53.114;9.130;2023-05-16T07:43:37;8.50;;;2.77;;
5684;SDS011;2865;53.114;9.130;2023-05-16T07:46:03;6.73;;;1.63;;
5684;SDS011;2865;53.114;9.130;2023-05-16T07:48:28;4.93;;;1.90;;
5684;SDS011;2865;53.114;9.130;2023-05-16T07:50:53;7.97;;;1.67;;
5684;SDS011;2865;53.114;9.130;2023-05-16T07:53:19;7.07;;;2.73;;
5684;SDS011;2865;53.114;9.130;2023-05-16T07:55:44;6.97;;;2.10;;
5684;SDS011;2865;53.114;9.130;2023-05-16T07:58:10;6.03;;;2.10;;
5684;SDS011;2865;53.114;9.130;2023-05-16T08:00:35;8.60;;;1.90;;
5684;SDS011;2865;53.114;9.130;2023-05-16T08:03:00;6.13;;;2.50;;
5684;SDS011;2865;53.114;9.130;2023-05-16T08:05:26;9.93;;;2.67;;
5684;SDS011;2865;53.114;9.130;2023-05-16T08:07:51;16.33;;;2.20;;
5684;SDS011;2865;53.114;9.130;2023-05-16T08:10:16;5.57;;;1.63;;
5684;SDS011;2865;53.114;9.130;2023-05-16T08:12:42;5.97;;;1.97;;
5684;SDS011;2865;53.114;9.130;2023-05-16T08:15:08;3.90;;;1.97;;
5684;SDS011;2865;53.114;9.130;2023-05-16T08:17:34;9.57;;;2.67;;
5684;SDS011;2865;53.114;9.130;2023-05-16T08:19:59;5.33;;;1.77;;
5684;SDS011;2865;53.114;9.130;2023-05-16T08:22:24;6.73;;;2.43;;
5684;SDS011;2865;53.114;9.130;2023-05-16T08:24:50;3.27;;;1.30;;
5684;SDS011;2865;53.114;9.130;2023-05-16T08:27:15;3.67;;;1.50;;
5684;SDS011;2865;53.114;9.130;2023-05-16T08:29:41;6.00;;;1.90;;
5684;SDS011;2865;53.114;9.130;2023-05-16T08:32:07;6.50;;;1.77;;
5684;SDS011;2865;53.114;9.130;2023-05-16T08:34:32;6.43;;;1.83;;
5684;SDS011;2865;53.114;9.130;2023-05-16T08:36:57;5.43;;;2.10;;
5684;SDS011;2865;53.114;9.130;2023-05-16T08:39:23;5.23;;;1.90;;
5684;SDS011;2865;53.114;9.130;2023-05-16T08:41:48;3.63;;;1.67;;
5684;SDS011;2865;53.114;9.130;2023-05-16T08:44:14;4.03;;;1.70;;
5684;SDS011;2865;53.114;9.130;2023-05-16T08:46:39;4.73;;;2.10;;
5684;SDS011;2865;53.114;9.130;2023-05-16T08:49:04;4.70;;;1.53;;
5684;SDS011;2865;53.114;9.130;2023-05-16T08:51:31;2.50;;;1.80;;
5684;SDS011;2865;53.114;9.130;2023-05-16T08:53:56;9.07;;;3.00;;
5684;SDS011;2865;53.114;9.130;2023-05-16T08:56:21;2.60;;;1.73;;
5684;SDS011;2865;53.114;9.130;2023-05-16T08:58:48;4.37;;;2.33;;
5684;SDS011;2865;53.114;9.130;2023-05-16T09:01:12;6.50;;;1.73;;
5684;SDS011;2865;53.114;9.130;2023-05-16T09:03:38;6.97;;;1.97;;
5684;SDS011;2865;53.114;9.130;2023-05-16T09:06:04;6.03;;;2.03;;
5684;SDS011;2865;53.114;9.130;2023-05-16T09:08:30;6.57;;;2.67;;
5684;SDS011;2865;53.114;9.130;2023-05-16T09:10:55;2.57;;;1.57;;
5684;SDS011;2865;53.114;9.130;2023-05-16T09:13:21;5.20;;;1.50;;
5684;SDS011;2865;53.114;9.130;2023-05-16T09:15:46;3.60;;;1.70;;
5684;SDS011;2865;53.114;9.130;2023-05-16T09:18:11;3.17;;;1.73;;
5684;SDS011;2865;53.114;9.130;2023-05-16T09:20:42;2.50;;;1.63;;
5684;SDS011;2865;53.114;9.130;2023-05-16T09:23:03;6.17;;;2.83;;
5684;SDS011;2865;53.114;9.130;2023-05-16T09:25:29;4.47;;;1.77;;
5684;SDS011;2865;53.114;9.130;2023-05-16T09:27:54;7.43;;;1.67;;
5684;SDS011;2865;53.114;9.130;2023-05-16T09:30:21;12.23;;;1.87;;
5684;SDS011;2865;53.114;9.130;2023-05-16T09:32:45;4.67;;;1.70;;
5684;SDS011;2865;53.114;9.130;2023-05-16T09:35:15;8.23;;;1.97;;
5684;SDS011;2865;53.114;9.130;2023-05-16T09:37:43;3.27;;;1.30;;
5684;SDS011;2865;53.114;9.130;2023-05-16T09:40:05;7.80;;;1.70;;
5684;SDS011;2865;53.114;9.130;2023-05-16T09:42:32;3.37;;;1.40;;
5684;SDS011;2865;53.114;9.130;2023-05-16T09:44:57;7.13;;;1.80;;
5684;SDS011;2865;53.114;9.130;2023-05-16T09:47:23;3.43;;;1.40;;
5684;SDS011;2865;53.114;9.130;2023-05-16T09:49:50;3.13;;;1.50;;
5684;SDS011;2865;53.114;9.130;2023-05-16T09:52:16;6.30;;;2.23;;
5684;SDS011;2865;53.114;9.130;2023-05-16T09:54:41;4.33;;;2.07;;
5684;SDS011;2865;53.114;9.130;2023-05-16T09:57:07;5.33;;;2.00;;
5684;SDS011;2865;53.114;9.130;2023-05-16T09:59:36;7.33;;;2.30;;
5684;SDS011;2865;53.114;9.130;2023-05-16T10:02:01;6.60;;;2.30;;
5684;SDS011;2865;53.114;9.130;2023-05-16T10:04:26;7.20;;;1.97;;
5684;SDS011;2865;53.114;9.130;2023-05-16T10:06:53;4.80;;;2.00;;
5684;SDS011;2865;53.114;9.130;2023-05-16T10:09:17;2.90;;;1.77;;
5684;SDS011;2865;53.114;9.130;2023-05-16T10:11:42;5.67;;;2.33;;
5684;SDS011;2865;53.114;9.130;2023-05-16T10:14:08;6.67;;;2.27;;
5684;SDS011;2865;53.114;9.130;2023-05-16T10:16:33;7.93;;;1.77;;
5684;SDS011;2865;53.114;9.130;2023-05-16T10:18:59;5.30;;;1.80;;
5684;SDS011;2865;53.114;9.130;2023-05-16T10:21:24;5.00;;;2.33;;
5684;SDS011;2865;53.114;9.130;2023-05-16T10:23:50;8.60;;;2.00;;
5684;SDS011;2865;53.114;9.130;2023-05-16T10:26:16;7.83;;;2.37;;
5684;SDS011;2865;53.114;9.130;2023-05-16T10:28:41;9.33;;;2.67;;
5684;SDS011;2865;53.114;9.130;2023-05-16T10:31:06;5.63;;;1.77;;
5684;SDS011;2865;53.114;9.130;2023-05-16T10:33:32;4.73;;;1.93;;
5684;SDS011;2865;53.114;9.130;2023-05-16T10:35:57;7.73;;;1.70;;
5684;SDS011;2865;53.114;9.130;2023-05-16T10:38:22;6.53;;;1.60;;
5684;SDS011;2865;53.114;9.130;2023-05-16T10:40:48;7.47;;;1.97;;
5684;SDS011;2865;53.114;9.130;2023-05-16T10:43:21;5.07;;;2.10;;
5684;SDS011;2865;53.114;9.130;2023-05-16T10:45:39;2.90;;;1.60;;
5684;SDS011;2865;53.114;9.130;2023-05-16T10:48:04;7.83;;;2.10;;
5684;SDS011;2865;53.114;9.130;2023-05-16T10:50:35;6.83;;;1.87;;
5684;SDS011;2865;53.114;9.130;2023-05-16T10:58:40;2.67;;;1.77;;
5684;SDS011;2865;53.114;9.130;2023-05-16T11:03:58;3.70;;;1.47;;
5684;SDS011;2865;53.114;9.130;2023-05-16T11:06:19;3.20;;;1.70;;
5684;SDS011;2865;53.114;9.130;2023-05-16T11:08:56;3.00;;;1.50;;
5684;SDS011;2865;53.114;9.130;2023-05-16T11:13:52;2.73;;;2.10;;
5684;SDS011;2865;53.114;9.130;2023-05-16T11:18:49;3.80;;;1.67;;
5684;SDS011;2865;53.114;9.130;2023-05-16T11:21:14;2.37;;;1.80;;
5684;SDS011;2865;53.114;9.130;2023-05-16T11:23:40;8.63;;;2.97;;
5684;SDS011;2865;53.114;9.130;2023-05-16T11:26:05;4.77;;;1.93;;
5684;SDS011;2865;53.114;9.130;2023-05-16T11:28:31;6.03;;;2.50;;
5684;SDS011;2865;53.114;9.130;2023-05-16T11:30:57;5.43;;;2.10;;
5684;SDS011;2865;53.114;9.130;2023-05-16T11:33:21;4.73;;;2.20;;
5684;SDS011;2865;53.114;9.130;2023-05-16T11:38:23;7.30;;;2.30;;
5684;SDS011;2865;53.114;9.130;2023-05-16T11:40:49;3.27;;;1.90;;
5684;SDS011;2865;53.114;9.130;2023-05-16T11:43:16;3.73;;;1.90;;
5684;SDS011;2865;53.114;9.130;2023-05-16T11:45:39;5.03;;;1.63;;
5684;SDS011;2865;53.114;9.130;2023-05-16T11:48:05;1.93;;;1.73;;
5684;SDS011;2865;53.114;9.130;2023-05-16T11:50:31;6.10;;;2.10;;
5684;SDS011;2865;53.114;9.130;2023-05-16T11:52:56;2.07;;;1.73;;
5684;SDS011;2865;53.114;9.130;2023-05-16T11:55:23;6.30;;;1.90;;
5684;SDS011;2865;53.114;9.130;2023-05-16T11:57:48;5.13;;;1.60;;
5684;SDS011;2865;53.114;9.130;2023-05-16T12:00:14;6.20;;;1.80;;
5684;SDS011;2865;53.114;9.130;2023-05-16T12:02:40;2.33;;;1.37;;
5684;SDS011;2865;53.114;9.130;2023-05-16T12:05:07;2.67;;;1.80;;
5684;SDS011;2865;53.114;9.130;2023-05-16T12:07:33;3.50;;;1.80;;
5684;SDS011;2865;53.114;9.130;2023-05-16T12:09:58;5.23;;;2.30;;
5684;SDS011;2865;53.114;9.130;2023-05-16T12:12:23;6.33;;;1.73;;
5684;SDS011;2865;53.114;9.130;2023-05-16T12:14:49;1.43;;;1.27;;
5684;SDS011;2865;53.114;9.130;2023-05-16T12:17:14;4.50;;;1.60;;
5684;SDS011;2865;53.114;9.130;2023-05-16T12:19:39;4.03;;;2.00;;
5684;SDS011;2865;53.114;9.130;2023-05-16T12:22:11;1.87;;;1.70;;
5684;SDS011;2865;53.114;9.130;2023-05-16T12:24:31;5.57;;;1.90;;
5684;SDS011;2865;53.114;9.130;2023-05-16T12:26:56;6.50;;;1.60;;
5684;SDS011;2865;53.114;9.130;2023-05-16T12:29:21;5.87;;;1.90;;
5684;SDS011;2865;53.114;9.130;2023-05-16T12:31:47;1.53;;;1.30;;
5684;SDS011;2865;53.114;9.130;2023-05-16T12:34:14;3.10;;;1.70;;
5684;SDS011;2865;53.114;9.130;2023-05-16T12:36:39;2.70;;;1.70;;
5684;SDS011;2865;53.114;9.130;2023-05-16T12:39:04;2.87;;;1.30;;
5684;SDS011;2865;53.114;9.130;2023-05-16T12:41:30;4.00;;;1.57;;
5684;SDS011;2865;53.114;9.130;2023-05-16T12:46:32;5.07;;;1.70;;
5684;SDS011;2865;53.114;9.130;2023-05-16T12:49:01;2.63;;;1.20;;
5684;SDS011;2865;53.114;9.130;2023-05-16T12:51:28;5.87;;;1.80;;
5684;SDS011;2865;53.114;9.130;2023-05-16T12:53:52;3.30;;;1.53;;
5684;SDS011;2865;53.114;9.130;2023-05-16T12:56:17;2.15;;;1.45;;
5684;SDS011;2865;53.114;9.130;2023-05-16T12:58:43;6.67;;;1.83;;
5684;SDS011;2865;53.114;9.130;2023-05-16T13:01:08;3.80;;;1.60;;
5684;SDS011;2865;53.114;9.130;2023-05-16T13:03:33;4.13;;;1.70;;
5684;SDS011;2865;53.114;9.130;2023-05-16T13:05:59;4.93;;;1.70;;
5684;SDS011;2865;53.114;9.130;2023-05-16T13:08:26;4.67;;;1.93;;
5684;SDS011;2865;53.114;9.130;2023-05-16T13:10:51;4.80;;;1.90;;
5684;SDS011;2865;53.114;9.130;2023-05-16T13:13:17;2.20;;;1.70;;
5684;SDS011;2865;53.114;9.130;2023-05-16T13:15:43;3.70;;;1.47;;
5684;SDS011;2865;53.114;9.130;2023-05-16T13:18:08;5.30;;;2.40;;
5684;SDS011;2865;53.114;9.130;2023-05-16T13:20:33;3.17;;;1.63;;
5684;SDS011;2865;53.114;9.130;2023-05-16T13:22:59;7.00;;;2.13;;
5684;SDS011;2865;53.114;9.130;2023-05-16T13:25:24;7.23;;;2.00;;
5684;SDS011;2865;53.114;9.130;2023-05-16T13:27:49;4.47;;;1.80;;
5684;SDS011;2865;53.114;9.130;2023-05-16T13:30:15;3.53;;;2.30;;
5684;SDS011;2865;53.114;9.130;2023-05-16T13:32:40;5.67;;;1.63;;
5684;SDS011;2865;53.114;9.130;2023-05-16T13:35:06;6.57;;;2.20;;
5684;SDS011;2865;53.114;9.130;2023-05-16T13:37:31;8.33;;;2.03;;
5684;SDS011;2865;53.114;9.130;2023-05-16T13:39:57;4.53;;;2.07;;
5684;SDS011;2865;53.114;9.130;2023-05-16T13:42:22;2.70;;;1.50;;
5684;SDS011;2865;53.114;9.130;2023-05-16T13:44:48;3.50;;;2.13;;
5684;SDS011;2865;53.114;9.130;2023-05-16T13:47:14;3.87;;;1.90;;
5684;SDS011;2865;53.114;9.130;2023-05-16T13:49:39;8.60;;;2.10;;
5684;SDS011;2865;53.114;9.130;2023-05-16T13:52:05;7.10;;;2.20;;
5684;SDS011;2865;53.114;9.130;2023-05-16T13:54:30;4.40;;;2.13;;
5684;SDS011;2865;53.114;9.130;2023-05-16T13:56:56;7.20;;;1.83;;
5684;SDS011;2865;53.114;9.130;2023-05-16T13:59:21;6.07;;;1.90;;
5684;SDS011;2865;53.114;9.130;2023-05-16T14:01:47;4.07;;;2.30;;
5684;SDS011;2865;53.114;9.130;2023-05-16T14:04:12;4.50;;;1.93;;
5684;SDS011;2865;53.114;9.130;2023-05-16T14:06:37;5.10;;;1.73;;
5684;SDS011;2865;53.114;9.130;2023-05-16T14:09:03;5.00;;;1.60;;
5684;SDS011;2865;53.114;9.130;2023-05-16T14:11:29;8.67;;;2.13;;
5684;SDS011;2865;53.114;9.130;2023-05-16T14:13:54;3.87;;;1.90;;
5684;SDS011;2865;53.114;9.130;2023-05-16T14:16:19;6.77;;;1.87;;
5684;SDS011;2865;53.114;9.130;2023-05-16T14:18:45;6.83;;;2.37;;
5684;SDS011;2865;53.114;9.130;2023-05-16T14:21:10;6.20;;;2.43;;
5684;SDS011;2865;53.114;9.130;2023-05-16T14:23:35;9.80;;;3.30;;
5684;SDS011;2865;53.114;9.130;2023-05-16T14:26:01;8.93;;;2.17;;
5684;SDS011;2865;53.114;9.130;2023-05-16T14:28:26;4.20;;;1.53;;
5684;SDS011;2865;53.114;9.130;2023-05-16T14:30:52;6.53;;;2.10;;
5684;SDS011;2865;53.114;9.130;2023-05-16T14:33:17;4.20;;;2.00;;
5684;SDS011;2865;53.114;9.130;2023-05-16T14:35:43;4.87;;;2.10;;
5684;SDS011;2865;53.114;9.130;2023-05-16T14:38:08;4.70;;;2.10;;
5684;SDS011;2865;53.114;9.130;2023-05-16T14:40:34;6.20;;;2.47;;
5684;SDS011;2865;53.114;9.130;2023-05-16T14:42:59;13.17;;;2.90;;
5684;SDS011;2865;53.114;9.130;2023-05-16T14:45:25;3.63;;;1.93;;
5684;SDS011;2865;53.114;9.130;2023-05-16T14:47:51;10.10;;;2.87;;
5684;SDS011;2865;53.114;9.130;2023-05-16T14:50:16;5.13;;;2.47;;
5684;SDS011;2865;53.114;9.130;2023-05-16T14:52:41;6.47;;;2.33;;
5684;SDS011;2865;53.114;9.130;2023-05-16T14:55:07;5.40;;;1.87;;
5684;SDS011;2865;53.114;9.130;2023-05-16T14:57:32;3.87;;;1.73;;
5684;SDS011;2865;53.114;9.130;2023-05-16T14:59:57;8.17;;;2.47;;
5684;SDS011;2865;53.114;9.130;2023-05-16T15:02:23;12.00;;;2.43;;
5684;SDS011;2865;53.114;9.130;2023-05-16T15:04:48;3.73;;;2.17;;
5684;SDS011;2865;53.114;9.130;2023-05-16T15:07:14;3.13;;;1.93;;
5684;SDS011;2865;53.114;9.130;2023-05-16T15:09:39;3.63;;;1.67;;
5684;SDS011;2865;53.114;9.130;2023-05-16T15:12:05;4.87;;;2.17;;
5684;SDS011;2865;53.114;9.130;2023-05-16T15:14:31;5.97;;;3.00;;
5684;SDS011;2865;53.114;9.130;2023-05-16T15:16:56;7.90;;;2.10;;
5684;SDS011;2865;53.114;9.130;2023-05-16T15:19:22;7.00;;;2.43;;
5684;SDS011;2865;53.114;9.130;2023-05-16T15:21:47;7.20;;;1.73;;
5684;SDS011;2865;53.114;9.130;2023-05-16T15:24:12;3.57;;;1.93;;
5684;SDS011;2865;53.114;9.130;2023-05-16T15:26:38;6.60;;;1.70;;
5684;SDS011;2865;53.114;9.130;2023-05-16T15:29:03;8.63;;;2.40;;
5684;SDS011;2865;53.114;9.130;2023-05-16T15:31:29;7.10;;;1.97;;
5684;SDS011;2865;53.114;9.130;2023-05-16T15:33:54;4.20;;;2.03;;